sensor_id;sensor_type;location;lat;lon;timestamp;P1;durP1;ratioP1;P2;durP2;ratioP2
60612;SDS011;46443;59.792;17.626;2023-04-03T00:00:13;3.53;;;1.48;;
60612;SDS011;46443;59.792;17.626;2023-04-03T00:02:39;5.80;;;1.95;;
60612;SDS011;46443;59.792;17.626;2023-04-03T00:05:06;2.17;;;1.38;;
60612;SDS011;46443;59.792;17.626;2023-04-03T00:07:32;3.03;;;1.42;;
60612;SDS011;46443;59.792;17.626;2023-04-03T00:09:58;4.72;;;1.40;;
60612;SDS011;46443;59.792;17.626;2023-04-03T00:12:24;2.78;;;1.50;;
60612;SDS011;46443;59.792;17.626;2023-04-03T00:14:50;2.92;;;1.50;;
60612;SDS011;46443;59.792;17.626;2023-04-03T00:17:16;2.45;;;1.40;;
60612;SDS011;46443;59.792;17.626;2023-04-03T00:19:42;3.10;;;1.50;;
60612;SDS011;46443;59.792;17.626;2023-04-03T00:22:08;2.40;;;1.30;;
60612;SDS011;46443;59.792;17.626;2023-04-03T00:24:35;6.05;;;1.50;;
60612;SDS011;46443;59.792;17.626;2023-04-03T00:27:01;1.83;;;1.27;;
60612;SDS011;46443;59.792;17.626;2023-04-03T00:29:27;2.97;;;1.45;;
60612;SDS011;46443;59.792;17.626;2023-04-03T00:31:53;3.42;;;1.67;;
60612;SDS011;46443;59.792;17.626;2023-04-03T00:34:19;3.33;;;1.33;;
60612;SDS011;46443;59.792;17.626;2023-04-03T00:36:45;3.85;;;1.42;;
60612;SDS011;46443;59.792;17.626;2023-04-03T00:39:11;4.95;;;1.60;;
60612;SDS011;46443;59.792;17.626;2023-04-03T00:41:37;1.80;;;1.45;;
60612;SDS011;46443;59.792;17.626;2023-04-03T00:44:23;2.15;;;1.65;;
60612;SDS011;46443;59.792;17.626;2023-04-03T00:47:09;3.85;;;1.40;;
60612;SDS011;46443;59.792;17.626;2023-04-03T00:49:37;2.58;;;1.30;;
60612;SDS011;46443;59.792;17.626;2023-04-03T00:52:04;5.22;;;1.60;;
60612;SDS011;46443;59.792;17.626;2023-04-03T00:54:31;3.55;;;1.60;;
60612;SDS011;46443;59.792;17.626;2023-04-03T00:56:58;3.90;;;1.52;;
60612;SDS011;46443;59.792;17.626;2023-04-03T00:59:25;4.57;;;1.50;;
60612;SDS011;46443;59.792;17.626;2023-04-03T01:01:53;2.42;;;1.33;;
60612;SDS011;46443;59.792;17.626;2023-04-03T01:04:28;2.38;;;1.40;;
60612;SDS011;46443;59.792;17.626;2023-04-03T01:06:56;2.60;;;1.40;;
60612;SDS011;46443;59.792;17.626;2023-04-03T01:09:23;6.55;;;1.63;;
60612;SDS011;46443;59.792;17.626;2023-04-03T01:11:50;3.70;;;1.60;;
60612;SDS011;46443;59.792;17.626;2023-04-03T01:14:16;5.85;;;1.52;;
60612;SDS011;46443;59.792;17.626;2023-04-03T01:16:42;5.20;;;1.40;;
60612;SDS011;46443;59.792;17.626;2023-04-03T01:19:10;4.28;;;1.60;;
60612;SDS011;46443;59.792;17.626;2023-04-03T01:24:27;5.07;;;1.70;;
60612;SDS011;46443;59.792;17.626;2023-04-03T01:26:56;3.22;;;1.45;;
60612;SDS011;46443;59.792;17.626;2023-04-03T01:29:23;7.15;;;2.13;;
60612;SDS011;46443;59.792;17.626;2023-04-03T01:31:50;3.58;;;1.45;;
60612;SDS011;46443;59.792;17.626;2023-04-03T01:34:16;2.42;;;1.42;;
60612;SDS011;46443;59.792;17.626;2023-04-03T01:36:43;5.07;;;1.65;;
60612;SDS011;46443;59.792;17.626;2023-04-03T01:39:09;4.25;;;1.92;;
60612;SDS011;46443;59.792;17.626;2023-04-03T01:41:35;3.88;;;1.80;;
60612;SDS011;46443;59.792;17.626;2023-04-03T01:44:01;5.45;;;1.85;;
60612;SDS011;46443;59.792;17.626;2023-04-03T01:46:28;3.00;;;1.70;;
60612;SDS011;46443;59.792;17.626;2023-04-03T01:48:54;4.00;;;1.63;;
60612;SDS011;46443;59.792;17.626;2023-04-03T01:51:21;4.85;;;1.40;;
60612;SDS011;46443;59.792;17.626;2023-04-03T01:53:47;5.55;;;1.80;;
60612;SDS011;46443;59.792;17.626;2023-04-03T01:56:13;3.88;;;1.88;;
60612;SDS011;46443;59.792;17.626;2023-04-03T01:58:39;1.90;;;1.40;;
60612;SDS011;46443;59.792;17.626;2023-04-03T02:01:05;3.75;;;1.58;;
60612;SDS011;46443;59.792;17.626;2023-04-03T02:03:31;2.08;;;1.10;;
60612;SDS011;46443;59.792;17.626;2023-04-03T02:05:58;4.35;;;1.67;;
60612;SDS011;46443;59.792;17.626;2023-04-03T02:08:24;3.35;;;1.65;;
60612;SDS011;46443;59.792;17.626;2023-04-03T02:10:50;5.20;;;1.73;;
60612;SDS011;46443;59.792;17.626;2023-04-03T02:13:16;2.92;;;1.70;;
60612;SDS011;46443;59.792;17.626;2023-04-03T02:15:42;4.47;;;1.70;;
60612;SDS011;46443;59.792;17.626;2023-04-03T02:18:10;3.13;;;1.70;;
60612;SDS011;46443;59.792;17.626;2023-04-03T02:20:36;4.93;;;1.98;;
60612;SDS011;46443;59.792;17.626;2023-04-03T02:23:03;3.15;;;1.60;;
60612;SDS011;46443;59.792;17.626;2023-04-03T02:25:32;3.40;;;1.63;;
60612;SDS011;46443;59.792;17.626;2023-04-03T02:27:58;3.83;;;1.77;;
60612;SDS011;46443;59.792;17.626;2023-04-03T02:30:25;2.90;;;1.65;;
60612;SDS011;46443;59.792;17.626;2023-04-03T02:32:51;2.97;;;1.50;;
60612;SDS011;46443;59.792;17.626;2023-04-03T02:35:17;2.03;;;1.60;;
60612;SDS011;46443;59.792;17.626;2023-04-03T02:37:43;3.90;;;1.88;;
60612;SDS011;46443;59.792;17.626;2023-04-03T02:40:10;8.02;;;1.85;;
60612;SDS011;46443;59.792;17.626;2023-04-03T02:42:36;6.75;;;1.70;;
60612;SDS011;46443;59.792;17.626;2023-04-03T02:45:03;3.38;;;1.40;;
60612;SDS011;46443;59.792;17.626;2023-04-03T02:47:29;6.22;;;1.85;;
60612;SDS011;46443;59.792;17.626;2023-04-03T02:49:55;3.90;;;1.80;;
60612;SDS011;46443;59.792;17.626;2023-04-03T02:52:21;4.88;;;1.80;;
60612;SDS011;46443;59.792;17.626;2023-04-03T02:54:47;3.58;;;1.60;;
60612;SDS011;46443;59.792;17.626;2023-04-03T02:57:13;1.42;;;1.30;;
60612;SDS011;46443;59.792;17.626;2023-04-03T02:59:40;3.00;;;1.60;;
60612;SDS011;46443;59.792;17.626;2023-04-03T03:02:06;6.00;;;1.70;;
60612;SDS011;46443;59.792;17.626;2023-04-03T03:04:33;2.95;;;1.63;;
60612;SDS011;46443;59.792;17.626;2023-04-03T03:06:59;3.63;;;1.50;;
60612;SDS011;46443;59.792;17.626;2023-04-03T03:09:25;3.75;;;1.83;;
60612;SDS011;46443;59.792;17.626;2023-04-03T03:11:51;4.70;;;1.98;;
60612;SDS011;46443;59.792;17.626;2023-04-03T03:14:17;2.78;;;1.60;;
60612;SDS011;46443;59.792;17.626;2023-04-03T03:16:43;1.35;;;1.20;;
60612;SDS011;46443;59.792;17.626;2023-04-03T03:19:10;3.75;;;1.85;;
60612;SDS011;46443;59.792;17.626;2023-04-03T03:21:36;2.30;;;1.30;;
60612;SDS011;46443;59.792;17.626;2023-04-03T03:24:02;3.58;;;1.80;;
60612;SDS011;46443;59.792;17.626;2023-04-03T03:26:28;2.28;;;1.70;;
60612;SDS011;46443;59.792;17.626;2023-04-03T03:28:55;3.38;;;1.40;;
60612;SDS011;46443;59.792;17.626;2023-04-03T03:31:21;3.22;;;1.63;;
60612;SDS011;46443;59.792;17.626;2023-04-03T03:33:47;2.97;;;1.55;;
60612;SDS011;46443;59.792;17.626;2023-04-03T03:36:13;3.10;;;1.40;;
60612;SDS011;46443;59.792;17.626;2023-04-03T03:38:39;2.95;;;1.48;;
60612;SDS011;46443;59.792;17.626;2023-04-03T03:41:05;5.50;;;1.42;;
60612;SDS011;46443;59.792;17.626;2023-04-03T03:43:31;5.82;;;1.83;;
60612;SDS011;46443;59.792;17.626;2023-04-03T03:45:57;1.88;;;1.52;;
60612;SDS011;46443;59.792;17.626;2023-04-03T03:48:23;1.52;;;1.40;;
60612;SDS011;46443;59.792;17.626;2023-04-03T03:50:50;4.10;;;1.75;;
60612;SDS011;46443;59.792;17.626;2023-04-03T03:53:16;3.03;;;1.42;;
60612;SDS011;46443;59.792;17.626;2023-04-03T03:55:42;6.38;;;1.50;;
60612;SDS011;46443;59.792;17.626;2023-04-03T03:58:08;3.92;;;1.73;;
60612;SDS011;46443;59.792;17.626;2023-04-03T04:00:35;2.22;;;1.63;;
60612;SDS011;46443;59.792;17.626;2023-04-03T04:03:01;5.53;;;1.52;;
60612;SDS011;46443;59.792;17.626;2023-04-03T04:05:27;8.23;;;2.03;;
60612;SDS011;46443;59.792;17.626;2023-04-03T04:07:53;7.60;;;2.17;;
60612;SDS011;46443;59.792;17.626;2023-04-03T04:10:19;3.20;;;1.45;;
60612;SDS011;46443;59.792;17.626;2023-04-03T04:12:45;3.20;;;1.58;;
60612;SDS011;46443;59.792;17.626;2023-04-03T04:15:14;3.25;;;1.73;;
60612;SDS011;46443;59.792;17.626;2023-04-03T04:17:40;1.75;;;1.35;;
60612;SDS011;46443;59.792;17.626;2023-04-03T04:20:06;4.90;;;1.83;;
60612;SDS011;46443;59.792;17.626;2023-04-03T04:22:32;3.65;;;1.42;;
60612;SDS011;46443;59.792;17.626;2023-04-03T04:24:58;2.65;;;1.60;;
60612;SDS011;46443;59.792;17.626;2023-04-03T04:27:24;8.05;;;1.83;;
60612;SDS011;46443;59.792;17.626;2023-04-03T04:29:50;1.92;;;1.25;;
60612;SDS011;46443;59.792;17.626;2023-04-03T04:32:16;4.10;;;1.70;;
60612;SDS011;46443;59.792;17.626;2023-04-03T04:34:43;5.05;;;1.98;;
60612;SDS011;46443;59.792;17.626;2023-04-03T04:37:09;5.95;;;1.70;;
60612;SDS011;46443;59.792;17.626;2023-04-03T04:39:35;4.15;;;2.22;;
60612;SDS011;46443;59.792;17.626;2023-04-03T04:42:01;5.80;;;2.20;;
60612;SDS011;46443;59.792;17.626;2023-04-03T04:44:27;4.28;;;2.13;;
60612;SDS011;46443;59.792;17.626;2023-04-03T04:46:53;7.15;;;1.83;;
60612;SDS011;46443;59.792;17.626;2023-04-03T04:49:20;3.10;;;1.70;;
60612;SDS011;46443;59.792;17.626;2023-04-03T04:51:46;3.55;;;1.60;;
60612;SDS011;46443;59.792;17.626;2023-04-03T04:54:12;7.65;;;2.13;;
60612;SDS011;46443;59.792;17.626;2023-04-03T04:56:38;3.22;;;1.73;;
60612;SDS011;46443;59.792;17.626;2023-04-03T04:59:04;9.77;;;2.25;;
60612;SDS011;46443;59.792;17.626;2023-04-03T05:01:30;3.80;;;1.98;;
60612;SDS011;46443;59.792;17.626;2023-04-03T05:03:56;4.30;;;2.17;;
60612;SDS011;46443;59.792;17.626;2023-04-03T05:06:22;3.28;;;1.90;;
60612;SDS011;46443;59.792;17.626;2023-04-03T05:08:48;6.75;;;2.40;;
60612;SDS011;46443;59.792;17.626;2023-04-03T05:11:14;7.30;;;2.15;;
60612;SDS011;46443;59.792;17.626;2023-04-03T05:13:41;4.07;;;1.88;;
60612;SDS011;46443;59.792;17.626;2023-04-03T05:16:07;4.32;;;2.42;;
60612;SDS011;46443;59.792;17.626;2023-04-03T05:18:33;3.63;;;2.08;;
60612;SDS011;46443;59.792;17.626;2023-04-03T05:21:00;5.43;;;2.47;;
60612;SDS011;46443;59.792;17.626;2023-04-03T05:23:26;5.35;;;2.58;;
60612;SDS011;46443;59.792;17.626;2023-04-03T05:25:52;4.07;;;1.95;;
60612;SDS011;46443;59.792;17.626;2023-04-03T05:28:18;3.95;;;2.20;;
60612;SDS011;46443;59.792;17.626;2023-04-03T05:30:45;5.97;;;2.60;;
60612;SDS011;46443;59.792;17.626;2023-04-03T05:33:11;4.28;;;2.20;;
60612;SDS011;46443;59.792;17.626;2023-04-03T05:35:37;6.57;;;2.38;;
60612;SDS011;46443;59.792;17.626;2023-04-03T05:38:05;4.82;;;2.28;;
60612;SDS011;46443;59.792;17.626;2023-04-03T05:40:31;6.68;;;2.25;;
60612;SDS011;46443;59.792;17.626;2023-04-03T05:42:57;4.07;;;2.13;;
60612;SDS011;46443;59.792;17.626;2023-04-03T05:45:23;4.95;;;1.85;;
60612;SDS011;46443;59.792;17.626;2023-04-03T05:47:49;5.55;;;1.90;;
60612;SDS011;46443;59.792;17.626;2023-04-03T05:50:15;7.72;;;2.35;;
60612;SDS011;46443;59.792;17.626;2023-04-03T05:52:42;5.00;;;2.13;;
60612;SDS011;46443;59.792;17.626;2023-04-03T05:55:10;6.50;;;2.10;;
60612;SDS011;46443;59.792;17.626;2023-04-03T05:57:36;6.40;;;2.45;;
60612;SDS011;46443;59.792;17.626;2023-04-03T06:00:03;9.05;;;2.50;;
60612;SDS011;46443;59.792;17.626;2023-04-03T06:02:30;6.07;;;2.50;;
60612;SDS011;46443;59.792;17.626;2023-04-03T06:04:56;6.82;;;2.25;;
60612;SDS011;46443;59.792;17.626;2023-04-03T06:07:23;6.65;;;2.15;;
60612;SDS011;46443;59.792;17.626;2023-04-03T06:09:53;7.85;;;2.60;;
60612;SDS011;46443;59.792;17.626;2023-04-03T06:12:20;5.65;;;2.03;;
60612;SDS011;46443;59.792;17.626;2023-04-03T06:14:47;4.43;;;2.33;;
60612;SDS011;46443;59.792;17.626;2023-04-03T06:17:13;6.35;;;2.45;;
60612;SDS011;46443;59.792;17.626;2023-04-03T06:19:40;6.65;;;2.30;;
60612;SDS011;46443;59.792;17.626;2023-04-03T06:22:07;8.10;;;2.42;;
60612;SDS011;46443;59.792;17.626;2023-04-03T06:24:33;6.03;;;2.33;;
60612;SDS011;46443;59.792;17.626;2023-04-03T06:26:59;9.90;;;2.45;;
60612;SDS011;46443;59.792;17.626;2023-04-03T06:29:25;6.13;;;2.10;;
60612;SDS011;46443;59.792;17.626;2023-04-03T06:31:51;8.07;;;2.30;;
60612;SDS011;46443;59.792;17.626;2023-04-03T06:34:18;5.38;;;2.55;;
60612;SDS011;46443;59.792;17.626;2023-04-03T06:36:44;4.93;;;2.10;;
60612;SDS011;46443;59.792;17.626;2023-04-03T06:39:12;7.47;;;2.30;;
60612;SDS011;46443;59.792;17.626;2023-04-03T06:41:39;4.50;;;2.40;;
60612;SDS011;46443;59.792;17.626;2023-04-03T06:44:05;3.92;;;2.03;;
60612;SDS011;46443;59.792;17.626;2023-04-03T06:46:31;9.48;;;3.28;;
60612;SDS011;46443;59.792;17.626;2023-04-03T06:48:57;5.28;;;2.15;;
60612;SDS011;46443;59.792;17.626;2023-04-03T06:51:27;4.53;;;2.00;;
60612;SDS011;46443;59.792;17.626;2023-04-03T06:53:55;7.38;;;2.17;;
60612;SDS011;46443;59.792;17.626;2023-04-03T06:56:21;7.32;;;2.10;;
60612;SDS011;46443;59.792;17.626;2023-04-03T06:58:47;6.10;;;2.35;;
60612;SDS011;46443;59.792;17.626;2023-04-03T07:01:14;5.72;;;2.60;;
60612;SDS011;46443;59.792;17.626;2023-04-03T07:03:41;9.57;;;2.30;;
60612;SDS011;46443;59.792;17.626;2023-04-03T07:06:09;6.00;;;2.30;;
60612;SDS011;46443;59.792;17.626;2023-04-03T07:08:36;9.93;;;2.60;;
60612;SDS011;46443;59.792;17.626;2023-04-03T07:11:03;5.45;;;2.33;;
60612;SDS011;46443;59.792;17.626;2023-04-03T07:13:29;8.02;;;2.47;;
60612;SDS011;46443;59.792;17.626;2023-04-03T07:15:55;6.22;;;2.22;;
60612;SDS011;46443;59.792;17.626;2023-04-03T07:18:21;3.92;;;2.55;;
60612;SDS011;46443;59.792;17.626;2023-04-03T07:20:48;5.13;;;2.00;;
60612;SDS011;46443;59.792;17.626;2023-04-03T07:23:14;8.80;;;2.25;;
60612;SDS011;46443;59.792;17.626;2023-04-03T07:25:44;6.28;;;2.03;;
60612;SDS011;46443;59.792;17.626;2023-04-03T07:28:10;3.78;;;2.00;;
60612;SDS011;46443;59.792;17.626;2023-04-03T07:30:50;6.20;;;2.15;;
60612;SDS011;46443;59.792;17.626;2023-04-03T07:33:17;7.47;;;2.28;;
60612;SDS011;46443;59.792;17.626;2023-04-03T07:35:44;6.45;;;2.05;;
60612;SDS011;46443;59.792;17.626;2023-04-03T07:38:10;5.70;;;2.10;;
60612;SDS011;46443;59.792;17.626;2023-04-03T07:40:37;5.22;;;1.70;;
60612;SDS011;46443;59.792;17.626;2023-04-03T07:43:03;4.00;;;2.00;;
60612;SDS011;46443;59.792;17.626;2023-04-03T07:45:30;4.70;;;2.13;;
60612;SDS011;46443;59.792;17.626;2023-04-03T07:47:56;7.68;;;2.05;;
60612;SDS011;46443;59.792;17.626;2023-04-03T07:50:23;4.15;;;2.05;;
60612;SDS011;46443;59.792;17.626;2023-04-03T07:52:49;6.35;;;1.90;;
60612;SDS011;46443;59.792;17.626;2023-04-03T07:55:17;5.07;;;2.25;;
60612;SDS011;46443;59.792;17.626;2023-04-03T07:57:43;6.70;;;2.10;;
60612;SDS011;46443;59.792;17.626;2023-04-03T08:00:10;6.03;;;1.70;;
60612;SDS011;46443;59.792;17.626;2023-04-03T08:02:37;10.00;;;2.15;;
60612;SDS011;46443;59.792;17.626;2023-04-03T08:05:03;3.97;;;1.75;;
60612;SDS011;46443;59.792;17.626;2023-04-03T08:07:29;4.07;;;1.88;;
60612;SDS011;46443;59.792;17.626;2023-04-03T08:09:55;6.32;;;2.42;;
60612;SDS011;46443;59.792;17.626;2023-04-03T08:12:22;4.20;;;2.00;;
60612;SDS011;46443;59.792;17.626;2023-04-03T08:14:48;5.78;;;1.88;;
60612;SDS011;46443;59.792;17.626;2023-04-03T08:17:14;4.10;;;1.80;;
60612;SDS011;46443;59.792;17.626;2023-04-03T08:19:40;4.95;;;2.05;;
60612;SDS011;46443;59.792;17.626;2023-04-03T08:22:06;5.85;;;2.22;;
60612;SDS011;46443;59.792;17.626;2023-04-03T08:24:33;5.05;;;1.95;;
60612;SDS011;46443;59.792;17.626;2023-04-03T08:26:59;2.50;;;1.65;;
60612;SDS011;46443;59.792;17.626;2023-04-03T08:29:25;5.30;;;1.95;;
60612;SDS011;46443;59.792;17.626;2023-04-03T08:31:51;3.22;;;1.73;;
60612;SDS011;46443;59.792;17.626;2023-04-03T08:34:18;7.25;;;2.00;;
60612;SDS011;46443;59.792;17.626;2023-04-03T08:36:44;4.45;;;1.63;;
60612;SDS011;46443;59.792;17.626;2023-04-03T08:39:11;5.53;;;1.98;;
60612;SDS011;46443;59.792;17.626;2023-04-03T08:41:38;5.78;;;1.85;;
60612;SDS011;46443;59.792;17.626;2023-04-03T08:51:59;4.47;;;1.97;;
60612;SDS011;46443;59.792;17.626;2023-04-03T08:54:30;4.73;;;1.70;;
60612;SDS011;46443;59.792;17.626;2023-04-03T08:56:59;2.90;;;1.33;;
60612;SDS011;46443;59.792;17.626;2023-04-03T08:59:28;3.67;;;1.67;;
60612;SDS011;46443;59.792;17.626;2023-04-03T09:01:56;3.73;;;1.80;;
60612;SDS011;46443;59.792;17.626;2023-04-03T09:04:23;5.97;;;1.67;;
60612;SDS011;46443;59.792;17.626;2023-04-03T09:06:55;4.57;;;1.93;;
60612;SDS011;46443;59.792;17.626;2023-04-03T09:09:35;5.30;;;2.20;;
60612;SDS011;46443;59.792;17.626;2023-04-03T09:12:18;6.00;;;1.90;;
60612;SDS011;46443;59.792;17.626;2023-04-03T09:22:36;3.25;;;1.80;;
60612;SDS011;46443;59.792;17.626;2023-04-03T09:27:36;7.33;;;1.70;;
60612;SDS011;46443;59.792;17.626;2023-04-03T09:30:03;3.13;;;1.70;;
60612;SDS011;46443;59.792;17.626;2023-04-03T09:32:33;3.60;;;1.70;;
60612;SDS011;46443;59.792;17.626;2023-04-03T09:35:42;6.20;;;2.07;;
60612;SDS011;46443;59.792;17.626;2023-04-03T09:37:50;5.45;;;2.20;;
60612;SDS011;46443;59.792;17.626;2023-04-03T09:40:28;8.30;;;2.17;;
60612;SDS011;46443;59.792;17.626;2023-04-03T09:42:55;4.10;;;1.77;;
60612;SDS011;46443;59.792;17.626;2023-04-03T09:45:29;4.83;;;1.80;;
60612;SDS011;46443;59.792;17.626;2023-04-03T09:50:32;5.10;;;1.80;;
60612;SDS011;46443;59.792;17.626;2023-04-03T09:52:59;4.40;;;2.27;;
60612;SDS011;46443;59.792;17.626;2023-04-03T09:55:29;5.80;;;1.80;;
60612;SDS011;46443;59.792;17.626;2023-04-03T09:57:57;5.33;;;2.00;;
60612;SDS011;46443;59.792;17.626;2023-04-03T10:00:25;4.20;;;1.63;;
60612;SDS011;46443;59.792;17.626;2023-04-03T10:02:52;5.87;;;1.77;;
60612;SDS011;46443;59.792;17.626;2023-04-03T10:05:39;12.38;;;2.42;;
60612;SDS011;46443;59.792;17.626;2023-04-03T10:10:35;3.67;;;1.63;;
60612;SDS011;46443;59.792;17.626;2023-04-03T10:13:05;3.37;;;2.00;;
60612;SDS011;46443;59.792;17.626;2023-04-03T10:15:34;6.80;;;2.03;;
60612;SDS011;46443;59.792;17.626;2023-04-03T10:23:02;3.47;;;1.80;;
60612;SDS011;46443;59.792;17.626;2023-04-03T10:35:44;4.63;;;1.60;;
60612;SDS011;46443;59.792;17.626;2023-04-03T10:38:18;5.60;;;1.70;;
60612;SDS011;46443;59.792;17.626;2023-04-03T10:45:54;3.87;;;1.67;;
60612;SDS011;46443;59.792;17.626;2023-04-03T10:48:43;3.07;;;1.60;;
60612;SDS011;46443;59.792;17.626;2023-04-03T10:58:55;3.13;;;1.47;;
60612;SDS011;46443;59.792;17.626;2023-04-03T11:01:35;3.40;;;1.63;;
60612;SDS011;46443;59.792;17.626;2023-04-03T11:04:04;5.53;;;1.60;;
60612;SDS011;46443;59.792;17.626;2023-04-03T11:06:33;5.77;;;1.50;;
60612;SDS011;46443;59.792;17.626;2023-04-03T11:11:32;4.50;;;1.50;;
60612;SDS011;46443;59.792;17.626;2023-04-03T11:16:30;2.80;;;1.60;;
60612;SDS011;46443;59.792;17.626;2023-04-03T11:19:04;3.90;;;1.50;;
60612;SDS011;46443;59.792;17.626;2023-04-03T11:21:35;4.73;;;1.50;;
60612;SDS011;46443;59.792;17.626;2023-04-03T11:24:04;2.73;;;1.43;;
60612;SDS011;46443;59.792;17.626;2023-04-03T11:26:35;2.83;;;1.40;;
60612;SDS011;46443;59.792;17.626;2023-04-03T11:29:04;3.20;;;1.20;;
60612;SDS011;46443;59.792;17.626;2023-04-03T11:31:42;1.67;;;1.20;;
60612;SDS011;46443;59.792;17.626;2023-04-03T11:37:13;2.37;;;1.40;;
60612;SDS011;46443;59.792;17.626;2023-04-03T11:39:45;2.17;;;1.40;;
60612;SDS011;46443;59.792;17.626;2023-04-03T11:48:03;2.03;;;1.03;;
60612;SDS011;46443;59.792;17.626;2023-04-03T12:16:21;4.23;;;1.53;;
60612;SDS011;46443;59.792;17.626;2023-04-03T12:22:12;1.83;;;1.10;;
60612;SDS011;46443;59.792;17.626;2023-04-03T12:24:39;3.80;;;1.20;;
60612;SDS011;46443;59.792;17.626;2023-04-03T12:27:09;1.57;;;1.20;;
60612;SDS011;46443;59.792;17.626;2023-04-03T12:29:55;1.90;;;1.37;;
60612;SDS011;46443;59.792;17.626;2023-04-03T12:42:53;3.10;;;1.30;;
60612;SDS011;46443;59.792;17.626;2023-04-03T12:45:22;3.33;;;1.17;;
60612;SDS011;46443;59.792;17.626;2023-04-03T12:47:49;3.80;;;1.30;;
60612;SDS011;46443;59.792;17.626;2023-04-03T12:50:29;2.13;;;1.30;;
60612;SDS011;46443;59.792;17.626;2023-04-03T12:52:59;3.77;;;1.30;;
60612;SDS011;46443;59.792;17.626;2023-04-03T12:55:26;2.13;;;1.20;;
60612;SDS011;46443;59.792;17.626;2023-04-03T12:57:52;1.67;;;1.00;;
60612;SDS011;46443;59.792;17.626;2023-04-03T13:00:27;3.70;;;1.40;;
60612;SDS011;46443;59.792;17.626;2023-04-03T13:02:53;2.60;;;1.30;;
60612;SDS011;46443;59.792;17.626;2023-04-03T13:05:26;1.97;;;1.00;;
60612;SDS011;46443;59.792;17.626;2023-04-03T13:07:58;4.43;;;1.07;;
60612;SDS011;46443;59.792;17.626;2023-04-03T13:10:25;2.30;;;1.20;;
60612;SDS011;46443;59.792;17.626;2023-04-03T13:12:52;3.57;;;1.33;;
60612;SDS011;46443;59.792;17.626;2023-04-03T13:17:44;1.83;;;1.30;;
60612;SDS011;46443;59.792;17.626;2023-04-03T13:20:11;3.90;;;1.20;;
60612;SDS011;46443;59.792;17.626;2023-04-03T13:22:39;2.87;;;1.20;;
60612;SDS011;46443;59.792;17.626;2023-04-03T13:25:09;1.40;;;1.27;;
60612;SDS011;46443;59.792;17.626;2023-04-03T13:27:36;2.50;;;1.27;;
60612;SDS011;46443;59.792;17.626;2023-04-03T13:30:04;5.30;;;1.33;;
60612;SDS011;46443;59.792;17.626;2023-04-03T13:32:31;1.23;;;1.10;;
60612;SDS011;46443;59.792;17.626;2023-04-03T13:34:58;2.73;;;1.17;;
60612;SDS011;46443;59.792;17.626;2023-04-03T13:37:26;1.63;;;1.20;;
60612;SDS011;46443;59.792;17.626;2023-04-03T13:40:11;2.17;;;1.30;;
60612;SDS011;46443;59.792;17.626;2023-04-03T13:42:38;1.63;;;0.83;;
60612;SDS011;46443;59.792;17.626;2023-04-03T13:45:25;3.17;;;1.43;;
60612;SDS011;46443;59.792;17.626;2023-04-03T13:47:54;4.00;;;1.37;;
60612;SDS011;46443;59.792;17.626;2023-04-03T13:50:33;2.83;;;1.40;;
60612;SDS011;46443;59.792;17.626;2023-04-03T13:53:08;2.93;;;1.30;;
60612;SDS011;46443;59.792;17.626;2023-04-03T13:55:36;2.73;;;1.20;;
60612;SDS011;46443;59.792;17.626;2023-04-03T13:58:19;2.87;;;1.53;;
60612;SDS011;46443;59.792;17.626;2023-04-03T14:00:48;3.70;;;1.30;;
60612;SDS011;46443;59.792;17.626;2023-04-03T14:03:23;2.30;;;1.20;;
60612;SDS011;46443;59.792;17.626;2023-04-03T14:05:49;2.40;;;1.40;;
60612;SDS011;46443;59.792;17.626;2023-04-03T14:08:16;2.00;;;1.27;;
60612;SDS011;46443;59.792;17.626;2023-04-03T14:10:42;2.87;;;1.10;;
60612;SDS011;46443;59.792;17.626;2023-04-03T14:13:11;1.67;;;1.03;;
60612;SDS011;46443;59.792;17.626;2023-04-03T14:15:37;2.10;;;1.33;;
60612;SDS011;46443;59.792;17.626;2023-04-03T14:18:03;2.07;;;1.20;;
60612;SDS011;46443;59.792;17.626;2023-04-03T14:20:29;2.83;;;1.17;;
60612;SDS011;46443;59.792;17.626;2023-04-03T14:22:55;1.43;;;1.10;;
60612;SDS011;46443;59.792;17.626;2023-04-03T14:25:22;2.17;;;1.10;;
60612;SDS011;46443;59.792;17.626;2023-04-03T14:27:52;1.50;;;1.40;;
60612;SDS011;46443;59.792;17.626;2023-04-03T14:32:48;1.50;;;1.30;;
60612;SDS011;46443;59.792;17.626;2023-04-03T14:35:15;2.90;;;1.20;;
60612;SDS011;46443;59.792;17.626;2023-04-03T14:37:41;4.83;;;1.20;;
60612;SDS011;46443;59.792;17.626;2023-04-03T14:40:07;4.10;;;1.40;;
60612;SDS011;46443;59.792;17.626;2023-04-03T14:42:36;1.10;;;1.00;;
60612;SDS011;46443;59.792;17.626;2023-04-03T14:45:06;3.13;;;1.30;;
60612;SDS011;46443;59.792;17.626;2023-04-03T14:47:33;1.00;;;0.90;;
60612;SDS011;46443;59.792;17.626;2023-04-03T14:50:03;2.30;;;1.08;;
60612;SDS011;46443;59.792;17.626;2023-04-03T14:52:31;2.87;;;1.37;;
60612;SDS011;46443;59.792;17.626;2023-04-03T14:54:57;1.73;;;1.20;;
60612;SDS011;46443;59.792;17.626;2023-04-03T14:57:24;1.73;;;1.17;;
60612;SDS011;46443;59.792;17.626;2023-04-03T14:59:51;1.07;;;0.87;;
60612;SDS011;46443;59.792;17.626;2023-04-03T15:04:52;1.80;;;1.20;;
60612;SDS011;46443;59.792;17.626;2023-04-03T15:07:18;1.57;;;1.03;;
60612;SDS011;46443;59.792;17.626;2023-04-03T15:09:44;1.70;;;1.20;;
60612;SDS011;46443;59.792;17.626;2023-04-03T15:12:11;1.87;;;1.20;;
60612;SDS011;46443;59.792;17.626;2023-04-03T15:14:37;2.20;;;1.10;;
60612;SDS011;46443;59.792;17.626;2023-04-03T15:17:06;1.30;;;1.17;;
60612;SDS011;46443;59.792;17.626;2023-04-03T15:19:37;1.10;;;1.00;;
60612;SDS011;46443;59.792;17.626;2023-04-03T15:22:04;2.03;;;1.20;;
60612;SDS011;46443;59.792;17.626;2023-04-03T15:24:30;1.63;;;1.40;;
60612;SDS011;46443;59.792;17.626;2023-04-03T15:26:56;2.20;;;1.17;;
60612;SDS011;46443;59.792;17.626;2023-04-03T15:29:22;1.10;;;1.00;;
60612;SDS011;46443;59.792;17.626;2023-04-03T15:31:48;1.93;;;1.17;;
60612;SDS011;46443;59.792;17.626;2023-04-03T15:34:17;1.23;;;0.90;;
60612;SDS011;46443;59.792;17.626;2023-04-03T15:36:43;2.40;;;1.27;;
60612;SDS011;46443;59.792;17.626;2023-04-03T15:39:09;2.60;;;1.30;;
60612;SDS011;46443;59.792;17.626;2023-04-03T15:41:35;2.70;;;1.30;;
60612;SDS011;46443;59.792;17.626;2023-04-03T15:44:02;1.77;;;1.17;;
60612;SDS011;46443;59.792;17.626;2023-04-03T15:46:28;3.23;;;1.10;;
60612;SDS011;46443;59.792;17.626;2023-04-03T15:48:54;2.77;;;1.20;;
60612;SDS011;46443;59.792;17.626;2023-04-03T15:51:20;1.10;;;1.00;;
60612;SDS011;46443;59.792;17.626;2023-04-03T15:53:46;2.73;;;1.10;;
60612;SDS011;46443;59.792;17.626;2023-04-03T15:56:12;1.40;;;1.00;;
60612;SDS011;46443;59.792;17.626;2023-04-03T15:58:38;2.20;;;1.20;;
60612;SDS011;46443;59.792;17.626;2023-04-03T16:01:05;2.10;;;1.20;;
60612;SDS011;46443;59.792;17.626;2023-04-03T16:03:31;1.17;;;1.00;;
60612;SDS011;46443;59.792;17.626;2023-04-03T16:05:57;2.80;;;1.13;;
60612;SDS011;46443;59.792;17.626;2023-04-03T16:08:23;4.67;;;1.30;;
60612;SDS011;46443;59.792;17.626;2023-04-03T16:10:50;1.33;;;1.20;;
60612;SDS011;46443;59.792;17.626;2023-04-03T16:13:16;6.07;;;1.37;;
60612;SDS011;46443;59.792;17.626;2023-04-03T16:15:42;1.63;;;1.10;;
60612;SDS011;46443;59.792;17.626;2023-04-03T16:18:08;1.60;;;1.50;;
60612;SDS011;46443;59.792;17.626;2023-04-03T16:20:35;4.00;;;1.20;;
60612;SDS011;46443;59.792;17.626;2023-04-03T16:23:01;2.50;;;1.20;;
60612;SDS011;46443;59.792;17.626;2023-04-03T16:25:27;1.23;;;1.00;;
60612;SDS011;46443;59.792;17.626;2023-04-03T16:27:53;2.60;;;1.30;;
60612;SDS011;46443;59.792;17.626;2023-04-03T16:30:19;1.70;;;0.90;;